TW-0019 weather

Puli Christian Hospital Heliport
Puli, Nantou County, Taiwan

Public forecast

Using degrees Celsius for public forecast. Weather courtesy of forecast.io.

Closest aviation weather report (METAR) to Puli Christian Hospital Heliport

Closest report is Taichung Ching Chuang Kang Airport, 25.1 nm (46.5 km) NW. Retrieved 2020/04/08 07:30 UTC (6 minutes ago):

RCMQ 080730Z 36011KT 9999 FEW012 BKN050 23/16 Q1013 NOSIG RMK A2994

Closest aviation forecast (TAF) to Puli Christian Hospital Heliport

Closest forecast is Taichung Ching Chuang Kang Airport, 25.1 nm (46.5 km) NW. Retrieved 2020/04/08 06:00 UTC (2 hours ago):

TAF RCMQ 080500Z 0806/0906 01012KT 9999 FEW012 SCT060 TX24/0905Z TN15/0821Z BECMG 0810/0813 FEW012 BKN060 BECMG 0817/0820 01004KT 7000 FEW012 SCT020 BKN040 BECMG 0900/0903 01010KT 9999 FEW012 SCT050